createdAt,value
2018-06-11T00:01:45.426Z,17.75
2018-06-11T00:04:14.755Z,17.72
2018-06-11T00:06:43.953Z,17.70
2018-06-11T00:09:25.942Z,17.72
2018-06-11T00:11:54.519Z,17.70
2018-06-11T00:14:23.064Z,17.69
2018-06-11T00:16:51.672Z,17.68
2018-06-11T00:19:20.218Z,17.69
2018-06-11T00:21:48.854Z,17.68
2018-06-11T00:24:17.413Z,17.67
2018-06-11T00:26:46.038Z,17.65
2018-06-11T00:29:14.718Z,17.63
2018-06-11T00:31:43.273Z,17.62
2018-06-11T00:34:11.903Z,17.56
2018-06-11T00:36:40.476Z,17.55
2018-06-11T00:39:09.458Z,17.55
2018-06-11T00:41:38.042Z,17.53
2018-06-11T00:44:06.618Z,17.52
2018-06-11T00:46:35.215Z,17.50
2018-06-11T00:49:03.828Z,17.47
2018-06-11T00:51:32.473Z,17.45
2018-06-11T00:54:01.057Z,17.43
2018-06-11T00:56:29.597Z,17.39
2018-06-11T00:59:09.183Z,17.40
2018-06-11T01:01:38.510Z,17.39
2018-06-11T01:04:08.091Z,17.40
2018-06-11T01:06:36.830Z,17.42
2018-06-11T01:09:07.555Z,17.41
2018-06-11T01:11:36.486Z,17.36
2018-06-11T01:14:05.085Z,17.35
2018-06-11T01:16:34.382Z,17.37
2018-06-11T01:19:03.035Z,17.38
2018-06-11T01:21:31.595Z,17.35
2018-06-11T01:24:00.257Z,17.35
2018-06-11T01:26:28.912Z,17.36
2018-06-11T01:28:57.496Z,17.32
2018-06-11T01:31:26.118Z,17.26
2018-06-11T01:33:54.695Z,17.23
2018-06-11T01:36:23.941Z,17.22
2018-06-11T01:38:52.575Z,17.23
2018-06-11T01:41:21.131Z,17.24
2018-06-11T01:43:49.708Z,17.24
2018-06-11T01:46:18.317Z,17.18
2018-06-11T01:48:46.930Z,17.17
2018-06-11T01:51:15.538Z,17.16
2018-06-11T01:53:44.242Z,17.18
2018-06-11T01:56:12.872Z,17.19
2018-06-11T01:58:41.441Z,17.19
2018-06-11T02:01:10.038Z,17.16
2018-06-11T02:03:38.593Z,17.16
2018-06-11T02:06:07.177Z,17.13
2018-06-11T02:08:35.809Z,17.12
2018-06-11T02:11:06.059Z,17.08
2018-06-11T02:13:34.604Z,17.03
2018-06-11T02:16:03.170Z,16.98
2018-06-11T02:18:31.792Z,16.92
2018-06-11T02:21:00.375Z,16.91
2018-06-11T02:23:28.901Z,16.92
2018-06-11T02:25:57.511Z,16.84
2018-06-11T02:28:26.727Z,16.78
2018-06-11T02:31:09.553Z,16.76
2018-06-11T02:33:38.216Z,16.73
2018-06-11T02:36:06.780Z,16.68
2018-06-11T02:38:35.488Z,16.59
2018-06-11T02:41:04.047Z,16.59
2018-06-11T02:43:33.714Z,16.57
2018-06-11T02:46:02.377Z,16.56
2018-06-11T02:48:30.952Z,16.54
2018-06-11T02:50:59.719Z,16.56
2018-06-11T02:53:28.297Z,16.55
2018-06-11T02:55:57.629Z,16.52
2018-06-11T02:58:26.293Z,16.50
2018-06-11T03:00:54.959Z,16.52
2018-06-11T03:03:23.964Z,16.47
2018-06-11T03:05:52.674Z,16.45
2018-06-11T03:08:21.239Z,16.45
2018-06-11T03:10:49.807Z,16.43
2018-06-11T03:13:18.432Z,16.42
2018-06-11T03:15:46.991Z,16.41
2018-06-11T03:18:15.704Z,16.37
2018-06-11T03:20:44.372Z,16.35
2018-06-11T03:23:12.964Z,16.30
2018-06-11T03:25:41.654Z,16.25
2018-06-11T03:28:10.294Z,16.25
2018-06-11T03:30:39.154Z,16.23
2018-06-11T03:33:07.831Z,16.20
2018-06-11T03:35:36.385Z,16.19
2018-06-11T03:38:05.115Z,16.14
2018-06-11T03:40:51.801Z,16.12
2018-06-11T03:43:20.386Z,16.09
2018-06-11T03:45:48.978Z,16.12
2018-06-11T03:48:18.288Z,16.10
2018-06-11T03:50:47.502Z,16.07
2018-06-11T03:53:16.150Z,16.06
2018-06-11T03:55:44.731Z,16.06
2018-06-11T03:58:13.341Z,16.07
2018-06-11T04:00:41.961Z,16.06
2018-06-11T04:03:10.473Z,16.05
2018-06-11T04:05:39.502Z,16.03
2018-06-11T04:08:09.307Z,16.06
2018-06-11T04:10:37.961Z,16.02
2018-06-11T04:13:06.584Z,15.98
2018-06-11T04:15:35.204Z,15.98
2018-06-11T04:18:03.892Z,15.96
2018-06-11T04:20:32.450Z,15.98
2018-06-11T04:23:01.044Z,15.98
2018-06-11T04:25:29.609Z,15.99
2018-06-11T04:27:58.169Z,16.05
2018-06-11T04:30:26.971Z,16.13
2018-06-11T04:32:55.536Z,16.05
2018-06-11T04:35:34.870Z,15.97
2018-06-11T04:38:03.478Z,16.15
2018-06-11T04:40:32.063Z,16.28
2018-06-11T04:43:00.772Z,16.19
2018-06-11T04:45:29.348Z,16.16
2018-06-11T04:47:57.907Z,16.20
2018-06-11T04:50:26.467Z,16.22
2018-06-11T04:52:55.050Z,16.24
2018-06-11T04:55:23.684Z,16.20
2018-06-11T04:57:52.223Z,16.17
2018-06-11T05:00:20.969Z,16.11
2018-06-11T05:02:49.647Z,16.06
2018-06-11T05:05:18.418Z,16.15
2018-06-11T05:07:47.095Z,16.22
2018-06-11T05:10:15.665Z,16.22
2018-06-11T05:12:45.282Z,16.30
2018-06-11T05:15:13.888Z,16.36
2018-06-11T05:17:42.454Z,16.42
2018-06-11T05:20:11.924Z,16.50
2018-06-11T05:22:40.604Z,16.57
2018-06-11T05:25:09.353Z,16.60
2018-06-11T05:27:37.917Z,16.57
2018-06-11T05:30:06.561Z,16.64
2018-06-11T05:32:35.249Z,16.71
2018-06-11T05:35:03.874Z,16.78
2018-06-11T05:37:32.460Z,16.82
2018-06-11T05:40:01.096Z,16.90
2018-06-11T05:42:29.649Z,16.98
2018-06-11T05:44:58.332Z,17.05
2018-06-11T05:47:27.533Z,17.09
2018-06-11T05:49:56.117Z,17.03
2018-06-11T05:52:24.839Z,17.01
2018-06-11T05:54:53.461Z,17.00
2018-06-11T05:57:22.467Z,17.01
2018-06-11T05:59:51.017Z,17.07
2018-06-11T06:02:19.882Z,17.14
2018-06-11T06:04:48.634Z,17.26
2018-06-11T06:07:17.322Z,17.36
2018-06-11T06:09:45.883Z,17.34
2018-06-11T06:12:15.201Z,17.41
2018-06-11T06:14:43.752Z,17.43
2018-06-11T06:17:12.360Z,17.48
2018-06-11T06:19:40.993Z,17.59
2018-06-11T06:22:09.528Z,17.75
2018-06-11T06:24:38.076Z,17.89
2018-06-11T06:27:06.706Z,17.91
2018-06-11T06:29:35.539Z,17.84
2018-06-11T06:32:04.147Z,17.80
2018-06-11T06:34:33.380Z,17.83
2018-06-11T06:37:01.921Z,17.87
2018-06-11T06:39:30.476Z,17.97
2018-06-11T06:41:59.167Z,18.05
2018-06-11T06:44:27.808Z,18.16
2018-06-11T06:46:56.450Z,18.28
2018-06-11T06:49:25.060Z,18.36
2018-06-11T06:51:53.700Z,18.50
2018-06-11T06:54:23.076Z,18.64
2018-06-11T06:56:51.615Z,18.70
2018-06-11T06:59:20.150Z,18.74
2018-06-11T07:01:48.701Z,18.83
2018-06-11T07:04:17.263Z,18.88
2018-06-11T07:06:45.829Z,18.83
2018-06-11T07:09:14.500Z,18.77
2018-06-11T07:11:43.096Z,18.72
2018-06-11T07:14:11.767Z,18.69
2018-06-11T07:16:40.346Z,18.68
2018-06-11T07:19:09.045Z,18.79
2018-06-11T07:21:37.719Z,18.84
2018-06-11T07:24:06.493Z,18.86
2018-06-11T07:26:35.081Z,18.89
2018-06-11T07:29:03.661Z,18.84
2018-06-11T07:31:32.253Z,18.97
2018-06-11T07:34:00.975Z,19.01
2018-06-11T07:36:30.148Z,18.95
2018-06-11T07:38:58.710Z,19.01
2018-06-11T07:41:27.272Z,19.19
2018-06-11T07:43:55.845Z,19.31
2018-06-11T07:46:24.387Z,19.35
2018-06-11T07:48:53.129Z,19.28
2018-06-11T07:51:21.794Z,19.26
2018-06-11T07:53:50.338Z,19.29
2018-06-11T07:56:19.025Z,19.31
2018-06-11T07:58:56.205Z,19.35
2018-06-11T08:01:24.782Z,19.51
2018-06-11T08:03:53.481Z,19.55
2018-06-11T08:06:22.030Z,19.71
2018-06-11T08:08:50.660Z,19.85
2018-06-11T08:11:19.202Z,19.97
2018-06-11T08:13:48.069Z,20.15
2018-06-11T08:16:16.816Z,20.28
2018-06-11T08:18:45.385Z,20.38
2018-06-11T08:21:14.200Z,20.41
2018-06-11T08:23:42.829Z,20.56
2018-06-11T08:26:11.433Z,20.51
2018-06-11T08:28:39.992Z,20.47
2018-06-11T08:31:08.664Z,20.40
2018-06-11T08:33:37.279Z,20.60
2018-06-11T08:36:05.831Z,20.80
2018-06-11T08:38:34.475Z,20.91
2018-06-11T08:41:03.165Z,21.08
2018-06-11T08:43:31.697Z,21.03
2018-06-11T08:46:00.317Z,20.78
2018-06-11T08:48:28.864Z,20.67
2018-06-11T08:50:57.484Z,20.61
2018-06-11T08:53:26.274Z,20.60
2018-06-11T08:55:54.998Z,20.66
2018-06-11T08:58:23.704Z,20.74
2018-06-11T09:00:52.389Z,20.82
2018-06-11T09:03:33.465Z,20.82
2018-06-11T09:06:02.097Z,20.76
2018-06-11T09:08:30.766Z,20.72
2018-06-11T09:11:00.101Z,20.55
2018-06-11T09:13:28.654Z,20.49
2018-06-11T09:15:57.458Z,20.55
2018-06-11T09:18:26.060Z,20.59
2018-06-11T09:20:54.621Z,20.73
2018-06-11T09:23:23.469Z,20.77
2018-06-11T09:25:52.041Z,20.79
2018-06-11T09:28:20.582Z,20.66
2018-06-11T09:30:49.275Z,20.92
2018-06-11T09:33:18.090Z,20.99
2018-06-11T09:35:46.850Z,21.07
2018-06-11T09:38:15.466Z,21.30
2018-06-11T09:40:44.029Z,21.42
2018-06-11T09:43:12.601Z,21.49
2018-06-11T09:45:41.905Z,21.62
2018-06-11T09:48:10.494Z,21.56
2018-06-11T09:50:39.669Z,21.43
2018-06-11T09:53:30.422Z,21.55
2018-06-11T09:55:59.287Z,21.66
2018-06-11T09:58:27.849Z,21.81
2018-06-11T10:00:57.149Z,21.93
2018-06-11T10:03:25.943Z,22.00
2018-06-11T10:05:54.701Z,21.92
2018-06-11T10:08:23.326Z,22.00
2018-06-11T10:10:51.921Z,22.06
2018-06-11T10:13:20.618Z,22.19
2018-06-11T10:15:49.538Z,22.32
2018-06-11T10:18:18.245Z,22.39
2018-06-11T10:20:46.875Z,22.53
2018-06-11T10:23:15.654Z,22.51
2018-06-11T10:25:44.194Z,22.63
2018-06-11T10:28:12.932Z,22.88
2018-06-11T10:30:41.617Z,22.98
2018-06-11T10:33:10.278Z,23.10
2018-06-11T10:35:38.858Z,23.24
2018-06-11T10:38:08.128Z,23.26
2018-06-11T10:40:36.907Z,23.33
2018-06-11T10:43:05.551Z,23.49
2018-06-11T10:45:34.252Z,23.48
2018-06-11T10:48:03.034Z,23.53
2018-06-11T10:50:48.613Z,23.48
2018-06-11T10:53:17.283Z,23.63
2018-06-11T10:55:45.941Z,23.80
2018-06-11T10:58:14.614Z,23.89
2018-06-11T11:00:43.164Z,23.84
2018-06-11T11:03:11.722Z,23.91
2018-06-11T11:05:40.286Z,24.01
2018-06-11T11:08:11.962Z,24.30
2018-06-11T11:10:40.907Z,24.48
2018-06-11T11:13:09.613Z,24.68
2018-06-11T11:15:38.279Z,24.94
2018-06-11T11:18:06.833Z,24.89
2018-06-11T11:20:35.488Z,25.12
2018-06-11T11:23:04.322Z,25.55
2018-06-11T11:25:32.957Z,25.70
2018-06-11T11:28:01.543Z,25.62
2018-06-11T11:30:31.410Z,25.59
2018-06-11T11:33:00.061Z,25.81
2018-06-11T11:35:28.744Z,25.79
2018-06-11T11:37:57.317Z,26.06
2018-06-11T11:40:26.232Z,26.33
2018-06-11T11:42:54.797Z,26.66
2018-06-11T11:45:23.423Z,27.02
2018-06-11T11:47:51.994Z,27.32
2018-06-11T11:50:20.531Z,27.55
2018-06-11T11:52:49.664Z,27.75
2018-06-11T11:55:28.804Z,27.82
2018-06-11T11:58:00.944Z,28.26
2018-06-11T12:00:29.517Z,28.46
2018-06-11T12:02:58.064Z,28.56
2018-06-11T12:05:26.819Z,28.72
2018-06-11T12:07:55.472Z,28.86
2018-06-11T12:10:24.031Z,28.92
2018-06-11T12:12:52.641Z,28.35
2018-06-11T12:15:21.568Z,28.44
2018-06-11T12:17:50.428Z,28.71
2018-06-11T12:20:19.010Z,29.07
2018-06-11T12:22:47.597Z,28.98
2018-06-11T12:25:16.182Z,28.64
2018-06-11T12:27:52.636Z,28.61
2018-06-11T12:30:21.336Z,28.22
2018-06-11T12:32:49.906Z,28.50
2018-06-11T12:35:18.510Z,29.21
2018-06-11T12:37:51.636Z,29.60
2018-06-11T12:40:20.494Z,29.92
2018-06-11T12:42:49.054Z,29.80
2018-06-11T12:45:17.653Z,30.17
2018-06-11T12:47:50.349Z,30.19
2018-06-11T12:50:19.246Z,30.28
2018-06-11T12:52:47.861Z,30.31
2018-06-11T12:55:16.381Z,30.40
2018-06-11T12:57:44.968Z,30.56
2018-06-11T13:00:13.699Z,30.54
2018-06-11T13:02:42.443Z,30.33
2018-06-11T13:05:11.171Z,29.92
2018-06-11T13:07:40.216Z,30.08
2018-06-11T13:10:08.891Z,30.48
2018-06-11T13:12:37.581Z,30.70
2018-06-11T13:15:06.348Z,30.29
2018-06-11T13:17:34.983Z,30.35
2018-06-11T13:20:03.558Z,30.33
2018-06-11T13:22:32.122Z,30.57
2018-06-11T13:25:00.764Z,30.65
2018-06-11T13:27:29.496Z,30.56
2018-06-11T13:29:58.081Z,30.89
2018-06-11T13:32:26.822Z,30.91
2018-06-11T13:34:55.397Z,30.98
2018-06-11T13:37:23.935Z,30.98
2018-06-11T13:39:52.514Z,30.56
2018-06-11T13:42:21.092Z,29.99
2018-06-11T13:44:50.188Z,29.67
2018-06-11T13:47:18.889Z,28.93
2018-06-11T13:49:47.500Z,28.74
2018-06-11T13:52:29.308Z,28.58
2018-06-11T13:54:57.955Z,28.55
2018-06-11T13:57:26.638Z,28.55
2018-06-11T13:59:55.333Z,28.33
2018-06-11T14:02:23.881Z,28.36
2018-06-11T14:04:52.517Z,28.10
2018-06-11T14:07:21.227Z,28.32
2018-06-11T14:09:49.820Z,28.55
2018-06-11T14:12:18.586Z,28.53
2018-06-11T14:14:47.146Z,28.66
2018-06-11T14:17:16.964Z,28.52
2018-06-11T14:19:45.633Z,28.11
2018-06-11T14:22:14.303Z,27.83
2018-06-11T14:24:42.985Z,27.47
2018-06-11T14:27:11.609Z,27.04
2018-06-11T14:29:40.238Z,27.06
2018-06-11T14:32:12.613Z,26.98
2018-06-11T14:34:41.228Z,26.88
2018-06-11T14:37:09.784Z,26.76
2018-06-11T14:39:38.337Z,26.59
2018-06-11T14:42:06.998Z,26.62
2018-06-11T14:44:36.647Z,26.27
2018-06-11T14:47:05.317Z,25.88
2018-06-11T14:49:33.947Z,25.86
2018-06-11T14:52:02.525Z,25.95
2018-06-11T14:54:31.121Z,25.80
2018-06-11T14:57:00.007Z,25.60
2018-06-11T14:59:28.701Z,25.46
2018-06-11T15:01:57.348Z,25.26
2018-06-11T15:04:26.002Z,25.12
2018-06-11T15:06:54.634Z,25.13
2018-06-11T15:09:23.415Z,25.06
2018-06-11T15:11:52.129Z,25.00
2018-06-11T15:14:20.819Z,24.88
2018-06-11T15:16:49.409Z,24.79
2018-06-11T15:19:18.163Z,24.68
2018-06-11T15:21:46.964Z,24.65
2018-06-11T15:24:15.674Z,24.63
2018-06-11T15:27:25.224Z,24.52
2018-06-11T15:29:53.789Z,24.30
2018-06-11T15:32:22.459Z,24.17
2018-06-11T15:34:51.024Z,24.11
2018-06-11T15:37:19.716Z,23.94
2018-06-11T15:39:48.358Z,23.81
2018-06-11T15:42:16.912Z,23.69
2018-06-11T15:44:45.500Z,23.61
2018-06-11T15:47:14.202Z,23.59
2018-06-11T15:49:42.861Z,23.50
2018-06-11T15:52:11.496Z,23.43
2018-06-11T15:54:40.063Z,23.41
2018-06-11T15:57:08.720Z,23.38
2018-06-11T15:59:37.396Z,23.35
2018-06-11T16:02:06.376Z,23.31
2018-06-11T16:04:35.117Z,23.28
2018-06-11T16:07:04.584Z,23.28
2018-06-11T16:09:33.259Z,23.22
2018-06-11T16:12:02.445Z,23.18
2018-06-11T16:14:31.113Z,23.19
2018-06-11T16:16:59.747Z,23.19
2018-06-11T16:19:28.316Z,23.15
2018-06-11T16:21:56.977Z,23.14
2018-06-11T16:24:34.087Z,23.06
2018-06-11T16:27:05.216Z,23.02
2018-06-11T16:29:38.958Z,22.97
2018-06-11T16:32:12.128Z,22.93
2018-06-11T16:34:40.830Z,22.92
2018-06-11T16:37:09.501Z,22.98
2018-06-11T16:39:38.125Z,23.03
2018-06-11T16:42:06.820Z,23.03
2018-06-11T16:44:35.363Z,22.99
2018-06-11T16:47:03.972Z,23.02
2018-06-11T16:49:32.623Z,22.99
2018-06-11T16:52:01.188Z,22.92
2018-06-11T16:54:29.936Z,22.90
2018-06-11T16:56:59.205Z,22.82
2018-06-11T16:59:28.180Z,22.81
2018-06-11T17:01:56.935Z,22.80
2018-06-11T17:04:25.601Z,22.80
2018-06-11T17:06:54.187Z,22.79
2018-06-11T17:09:23.227Z,22.72
2018-06-11T17:11:52.541Z,22.71
2018-06-11T17:14:21.767Z,22.70
2018-06-11T17:16:51.183Z,22.68
2018-06-11T17:19:20.180Z,22.70
2018-06-11T17:21:49.190Z,22.68
2018-06-11T17:24:18.086Z,22.64
2018-06-11T17:27:05.749Z,22.64
2018-06-11T17:29:34.808Z,22.61
2018-06-11T17:32:03.588Z,22.55
2018-06-11T17:34:32.819Z,22.47
2018-06-11T17:37:01.470Z,22.40
2018-06-11T17:39:30.046Z,22.30
2018-06-11T17:41:58.771Z,22.27
2018-06-11T17:44:27.901Z,22.22
2018-06-11T17:46:56.709Z,22.17
2018-06-11T17:49:25.502Z,22.12
2018-06-11T17:51:54.095Z,22.12
2018-06-11T17:54:22.783Z,22.10
2018-06-11T17:56:51.419Z,22.03
2018-06-11T17:59:23.663Z,22.02
2018-06-11T18:01:52.850Z,21.98
2018-06-11T18:04:22.117Z,21.97
2018-06-11T18:06:51.343Z,21.94
2018-06-11T18:09:20.079Z,21.90
2018-06-11T18:11:51.286Z,21.87
2018-06-11T18:14:20.120Z,21.87
2018-06-11T18:16:48.699Z,21.84
2018-06-11T18:19:17.403Z,21.80
2018-06-11T18:21:46.099Z,21.75
2018-06-11T18:24:14.812Z,21.69
2018-06-11T18:26:43.390Z,21.68
2018-06-11T18:29:12.083Z,21.64
2018-06-11T18:31:40.724Z,21.61
2018-06-11T18:34:09.335Z,21.57
2018-06-11T18:36:38.009Z,21.54
2018-06-11T18:39:08.569Z,21.52
2018-06-11T18:41:37.641Z,21.49
2018-06-11T18:44:07.015Z,21.45
2018-06-11T18:46:35.655Z,21.42
2018-06-11T18:49:04.358Z,21.41
2018-06-11T18:51:32.929Z,21.35
2018-06-11T18:54:01.511Z,21.34
2018-06-11T18:56:30.633Z,21.30
2018-06-11T18:58:59.363Z,21.25
2018-06-11T19:01:28.040Z,21.23
2018-06-11T19:03:56.651Z,21.22
2018-06-11T19:06:25.321Z,21.19
2018-06-11T19:08:53.981Z,21.18
2018-06-11T19:11:22.774Z,21.17
2018-06-11T19:13:52.720Z,21.14
2018-06-11T19:16:23.001Z,21.11
2018-06-11T19:18:55.577Z,21.07
2018-06-11T19:21:25.971Z,21.01
2018-06-11T19:24:06.923Z,20.98
2018-06-11T19:26:35.646Z,20.96
2018-06-11T19:29:04.429Z,20.94
2018-06-11T19:31:33.232Z,20.90
2018-06-11T19:34:02.425Z,20.86
2018-06-11T19:36:31.438Z,20.82
2018-06-11T19:42:22.693Z,20.64
2018-06-11T19:44:51.367Z,20.61
2018-06-11T19:47:20.094Z,20.56
2018-06-11T19:49:48.791Z,20.52
2018-06-11T19:52:18.265Z,20.47
2018-06-11T19:55:13.658Z,20.44
2018-06-11T19:57:43.274Z,20.39
2018-06-11T20:00:11.979Z,20.37
2018-06-11T20:02:41.379Z,20.34
2018-06-11T20:05:38.450Z,20.32
2018-06-11T20:11:37.240Z,20.21
2018-06-11T20:14:05.950Z,20.17
2018-06-11T20:16:35.681Z,20.14
2018-06-11T20:19:04.478Z,20.12
2018-06-11T20:21:33.694Z,20.09
2018-06-11T20:24:03.132Z,20.05
2018-06-11T20:26:31.955Z,20.01
2018-06-11T20:29:00.831Z,19.97
2018-06-11T20:31:29.517Z,19.94
2018-06-11T20:33:58.169Z,19.90
2018-06-11T20:36:26.773Z,19.88
2018-06-11T20:38:55.544Z,19.85
2018-06-11T20:41:37.528Z,19.83
2018-06-11T20:44:06.242Z,19.80
2018-06-11T20:46:35.690Z,19.78
2018-06-11T20:49:04.758Z,19.74
2018-06-11T20:51:33.379Z,19.69
2018-06-11T20:54:02.279Z,19.66
2018-06-11T20:56:30.879Z,19.66
2018-06-11T20:58:59.571Z,19.64
2018-06-11T21:01:28.313Z,19.62
2018-06-11T21:03:56.991Z,19.59
2018-06-11T21:06:25.594Z,19.59
2018-06-11T21:08:54.314Z,19.56
2018-06-11T21:11:23.002Z,19.54
2018-06-11T21:13:51.755Z,19.50
2018-06-11T21:16:21.114Z,19.49
2018-06-11T21:19:17.101Z,19.49
2018-06-11T21:21:46.439Z,19.46
2018-06-11T21:24:15.197Z,19.43
2018-06-11T21:26:43.848Z,19.41
2018-06-11T21:29:12.480Z,19.38
2018-06-11T21:31:41.082Z,19.37
2018-06-11T21:34:09.770Z,19.32
2018-06-11T21:36:38.362Z,19.30
2018-06-11T21:39:08.900Z,19.29
2018-06-11T21:41:37.501Z,19.27
2018-06-11T21:44:06.178Z,19.25
2018-06-11T21:46:34.803Z,19.21
2018-06-11T21:49:03.443Z,19.19
2018-06-11T21:51:32.040Z,19.16
2018-06-11T21:54:01.528Z,19.12
2018-06-11T21:56:30.870Z,19.10
2018-06-11T21:58:59.449Z,19.08
2018-06-11T22:01:28.061Z,19.06
2018-06-11T22:03:56.855Z,19.05
2018-06-11T22:06:25.529Z,19.02
2018-06-11T22:08:54.349Z,19.01
2018-06-11T22:11:22.973Z,19.01
2018-06-11T22:13:51.716Z,18.97
2018-06-11T22:16:20.401Z,18.98
2018-06-11T22:18:49.211Z,18.95
2018-06-11T22:21:17.933Z,18.93
2018-06-11T22:23:46.911Z,18.90
2018-06-11T22:26:15.500Z,18.89
2018-06-11T22:28:44.083Z,18.86
2018-06-11T22:31:12.747Z,18.84
2018-06-11T22:33:41.408Z,18.81
2018-06-11T22:36:09.996Z,18.79
2018-06-11T22:38:38.596Z,18.76
2018-06-11T22:41:07.238Z,18.75
2018-06-11T22:43:35.915Z,18.72
2018-06-11T22:46:04.529Z,18.68
2018-06-11T22:48:33.126Z,18.63
2018-06-11T22:51:01.901Z,18.60
2018-06-11T22:53:30.592Z,18.54
2018-06-11T22:55:59.495Z,18.52
2018-06-11T22:58:28.115Z,18.47
2018-06-11T23:00:56.736Z,18.40
2018-06-11T23:03:25.304Z,18.35
2018-06-11T23:06:04.237Z,18.31
2018-06-11T23:08:33.121Z,18.26
2018-06-11T23:11:02.380Z,18.20
2018-06-11T23:13:31.053Z,18.13
2018-06-11T23:15:59.812Z,18.08
2018-06-11T23:18:28.368Z,18.04
2018-06-11T23:20:57.484Z,17.97
2018-06-11T23:23:26.704Z,17.90
2018-06-11T23:25:55.239Z,17.85
2018-06-11T23:28:23.881Z,17.78
2018-06-11T23:30:52.445Z,17.74
2018-06-11T23:33:21.386Z,17.68
2018-06-11T23:35:50.017Z,17.63
2018-06-11T23:38:18.586Z,17.60
2018-06-11T23:40:47.256Z,17.55
2018-06-11T23:43:15.914Z,17.50
2018-06-11T23:45:44.714Z,17.44
2018-06-11T23:48:13.365Z,17.40
2018-06-11T23:50:41.945Z,17.34
2018-06-11T23:53:10.508Z,17.27
2018-06-11T23:55:40.605Z,17.22
2018-06-11T23:58:09.144Z,17.19
